createdAt,value
2017-04-19T00:00:12.321Z,3.30
2017-04-19T00:01:11.267Z,3.30
2017-04-19T00:02:10.214Z,3.30
2017-04-19T00:03:09.171Z,3.30
2017-04-19T00:04:08.215Z,3.40
2017-04-19T00:05:07.187Z,3.40
2017-04-19T00:06:06.143Z,3.30
2017-04-19T00:07:05.096Z,3.40
2017-04-19T00:08:04.092Z,3.40
2017-04-19T00:09:03.057Z,3.40
2017-04-19T00:10:02.048Z,3.30
2017-04-19T00:11:01.031Z,3.30
2017-04-19T00:12:00.020Z,3.30
2017-04-19T00:12:59.012Z,3.40
2017-04-19T00:13:57.989Z,3.20
2017-04-19T00:14:56.940Z,3.30
2017-04-19T00:15:55.926Z,3.30
2017-04-19T00:16:55.636Z,3.20
2017-04-19T00:17:54.599Z,3.20
2017-04-19T00:18:53.549Z,3.20
2017-04-19T00:19:52.546Z,3.30
2017-04-19T00:20:51.504Z,3.30
2017-04-19T00:21:50.489Z,3.30
2017-04-19T00:22:49.471Z,3.10
2017-04-19T00:23:48.460Z,3.10
2017-04-19T00:24:47.438Z,3.10
2017-04-19T00:25:46.391Z,3.00
2017-04-19T00:26:45.416Z,3.00
2017-04-19T00:27:44.418Z,3.00
2017-04-19T00:28:43.388Z,3.00
2017-04-19T00:29:42.354Z,2.90
2017-04-19T00:30:41.313Z,3.00
2017-04-19T00:31:40.267Z,2.90
2017-04-19T00:32:39.960Z,2.80
2017-04-19T00:33:39.676Z,2.80
2017-04-19T00:34:38.640Z,2.80
2017-04-19T00:35:37.603Z,2.70
2017-04-19T00:36:36.571Z,2.60
2017-04-19T00:37:35.524Z,2.70
2017-04-19T00:38:34.493Z,2.70
2017-04-19T00:39:33.503Z,2.70
2017-04-19T00:40:32.473Z,2.70
2017-04-19T00:41:31.431Z,2.70
2017-04-19T00:42:31.364Z,2.60
2017-04-19T00:43:30.723Z,2.60
2017-04-19T00:44:29.713Z,2.50
2017-04-19T00:45:29.424Z,2.50
2017-04-19T00:46:28.388Z,2.40
2017-04-19T00:47:28.124Z,2.40
2017-04-19T00:48:27.129Z,2.40
2017-04-19T00:49:26.116Z,2.30
2017-04-19T00:50:25.075Z,2.30
2017-04-19T00:51:24.082Z,2.30
2017-04-19T00:52:23.067Z,2.30
2017-04-19T00:53:22.046Z,2.30
2017-04-19T00:54:21.033Z,2.20
2017-04-19T00:55:20.000Z,2.30
2017-04-19T00:56:18.956Z,2.30
2017-04-19T00:57:17.929Z,2.20
2017-04-19T00:58:17.673Z,2.00
2017-04-19T00:59:16.638Z,2.00
2017-04-19T01:00:15.604Z,2.00
2017-04-19T01:01:14.551Z,1.90
2017-04-19T01:02:13.530Z,2.00
2017-04-19T01:03:12.547Z,2.00
2017-04-19T01:04:11.499Z,2.00
2017-04-19T01:05:10.479Z,2.00
2017-04-19T01:06:09.419Z,1.90
2017-04-19T01:07:08.412Z,1.90
2017-04-19T01:08:07.367Z,1.80
2017-04-19T01:09:06.339Z,1.80
2017-04-19T01:10:06.091Z,1.80
2017-04-19T01:11:05.043Z,1.80
2017-04-19T01:12:04.012Z,1.70
2017-04-19T01:13:02.975Z,1.80
2017-04-19T01:14:01.936Z,1.80
2017-04-19T01:15:00.934Z,1.80
2017-04-19T01:15:59.947Z,1.70
2017-04-19T01:16:58.898Z,1.70
2017-04-19T01:17:57.859Z,1.70
2017-04-19T01:18:56.846Z,1.70
2017-04-19T01:19:55.825Z,1.60
2017-04-19T01:20:54.821Z,1.60
2017-04-19T01:21:53.781Z,1.60
2017-04-19T01:22:52.745Z,1.60
2017-04-19T01:23:51.757Z,1.60
2017-04-19T01:24:50.739Z,1.60
2017-04-19T01:25:49.735Z,1.60
2017-04-19T01:26:48.729Z,1.60
2017-04-19T01:27:47.700Z,1.60
2017-04-19T01:28:46.669Z,1.60
2017-04-19T01:29:45.647Z,1.50
2017-04-19T01:30:44.616Z,1.60
2017-04-19T01:31:43.572Z,1.60
2017-04-19T01:32:42.596Z,1.60
2017-04-19T01:33:41.591Z,1.60
2017-04-19T01:34:40.547Z,1.60
2017-04-19T01:35:39.524Z,1.60
2017-04-19T01:36:38.536Z,1.60
2017-04-19T01:37:37.499Z,1.60
2017-04-19T01:38:36.485Z,1.60
2017-04-19T01:39:35.458Z,1.60
2017-04-19T01:40:34.424Z,1.50
2017-04-19T01:41:33.370Z,1.60
2017-04-19T01:42:32.487Z,1.50
2017-04-19T01:43:31.451Z,1.50
2017-04-19T01:44:30.428Z,1.50
2017-04-19T01:45:29.388Z,1.50
2017-04-19T01:46:28.342Z,1.40
2017-04-19T01:47:27.315Z,1.40
2017-04-19T01:48:26.283Z,1.40
2017-04-19T01:49:25.241Z,1.40
2017-04-19T01:50:24.236Z,1.40
2017-04-19T01:51:23.211Z,1.30
2017-04-19T01:52:22.161Z,1.40
2017-04-19T01:53:21.128Z,1.30
2017-04-19T01:54:20.860Z,1.30
2017-04-19T01:55:19.844Z,1.30
2017-04-19T01:56:18.849Z,1.20
2017-04-19T01:57:17.819Z,1.20
2017-04-19T01:58:16.791Z,1.20
2017-04-19T01:59:15.787Z,1.20
2017-04-19T02:00:14.760Z,1.10
2017-04-19T02:01:13.729Z,1.00
2017-04-19T02:02:13.685Z,1.00
2017-04-19T02:03:12.718Z,1.00
2017-04-19T02:04:11.779Z,1.00
2017-04-19T02:05:10.733Z,1.00
2017-04-19T02:06:15.124Z,1.00
2017-04-19T02:07:19.636Z,0.90
2017-04-19T02:08:18.616Z,0.90
2017-04-19T02:09:17.575Z,0.90
2017-04-19T02:10:17.702Z,0.90
2017-04-19T02:11:16.673Z,1.00
2017-04-19T02:12:16.421Z,1.00
2017-04-19T02:13:15.423Z,1.00
2017-04-19T02:14:14.416Z,1.00
2017-04-19T02:15:13.396Z,1.00
2017-04-19T02:16:12.373Z,1.10
2017-04-19T02:17:11.354Z,1.10
2017-04-19T02:18:10.391Z,1.10
2017-04-19T02:19:09.416Z,1.10
2017-04-19T02:21:07.770Z,1.00
2017-04-19T02:22:06.736Z,1.10
2017-04-19T02:23:05.698Z,1.00
2017-04-19T02:24:04.662Z,1.00
2017-04-19T02:25:04.419Z,0.90
2017-04-19T02:26:03.384Z,1.00
2017-04-19T02:27:02.341Z,0.90
2017-04-19T02:28:01.301Z,0.90
2017-04-19T02:29:00.286Z,0.90
2017-04-19T02:29:59.245Z,0.90
2017-04-19T02:30:58.227Z,0.80
2017-04-19T02:31:57.195Z,0.70
2017-04-19T02:32:56.159Z,0.70
2017-04-19T02:33:55.116Z,0.70
2017-04-19T02:34:54.085Z,0.80
2017-04-19T02:35:53.830Z,0.80
2017-04-19T02:36:52.841Z,0.80
2017-04-19T02:37:51.799Z,0.70
2017-04-19T02:38:50.789Z,0.70
2017-04-19T02:39:49.781Z,0.70
2017-04-19T02:40:48.746Z,0.60
2017-04-19T02:41:47.704Z,0.60
2017-04-19T02:42:46.699Z,0.60
2017-04-19T02:43:45.677Z,0.50
2017-04-19T02:44:44.636Z,0.50
2017-04-19T02:45:44.336Z,0.50
2017-04-19T02:46:44.042Z,0.50
2017-04-19T02:47:43.754Z,0.40
2017-04-19T02:48:43.508Z,0.50
2017-04-19T02:49:42.488Z,0.50
2017-04-19T02:50:41.462Z,0.50
2017-04-19T02:51:40.435Z,0.40
2017-04-19T02:52:39.407Z,0.40
2017-04-19T02:53:38.409Z,0.40
2017-04-19T02:54:37.401Z,0.30
2017-04-19T02:55:36.374Z,0.40
2017-04-19T02:56:35.330Z,0.40
2017-04-19T02:57:34.287Z,0.40
2017-04-19T02:58:33.997Z,0.40
2017-04-19T02:59:32.971Z,0.40
2017-04-19T03:00:32.720Z,0.40
2017-04-19T03:01:32.452Z,0.40
2017-04-19T03:02:31.427Z,0.40
2017-04-19T03:03:30.460Z,0.40
2017-04-19T03:04:29.439Z,0.40
2017-04-19T03:05:28.408Z,0.40
2017-04-19T03:06:28.171Z,0.40
2017-04-19T03:07:27.256Z,0.40
2017-04-19T03:08:26.216Z,0.40
2017-04-19T03:09:25.171Z,0.40
2017-04-19T03:10:24.158Z,0.40
2017-04-19T03:11:23.132Z,0.40
2017-04-19T03:12:22.120Z,0.40
2017-04-19T03:13:21.081Z,0.40
2017-04-19T03:14:20.776Z,0.40
2017-04-19T03:15:19.711Z,0.50
2017-04-19T03:16:18.669Z,0.50
2017-04-19T03:17:17.616Z,0.40
2017-04-19T03:18:16.629Z,0.50
2017-04-19T03:19:15.592Z,0.50
2017-04-19T03:20:15.292Z,0.40
2017-04-19T03:21:14.248Z,0.40
2017-04-19T03:22:13.198Z,0.40
2017-04-19T03:23:12.160Z,0.40
2017-04-19T03:24:11.173Z,0.40
2017-04-19T03:25:10.157Z,0.40
2017-04-19T03:26:09.116Z,0.30
2017-04-19T03:27:08.077Z,0.30
2017-04-19T03:28:07.783Z,0.30
2017-04-19T03:29:06.802Z,0.20
2017-04-19T03:30:05.775Z,0.20
2017-04-19T03:31:04.731Z,0.20
2017-04-19T03:32:04.434Z,0.20
2017-04-19T03:33:03.423Z,0.20
2017-04-19T03:34:02.374Z,0.30
2017-04-19T03:35:01.341Z,0.30
2017-04-19T03:36:00.332Z,0.20
2017-04-19T03:36:59.288Z,0.20
2017-04-19T03:37:58.259Z,0.30
2017-04-19T03:38:57.242Z,0.20
2017-04-19T03:39:56.192Z,0.20
2017-04-19T03:40:55.567Z,0.20
2017-04-19T03:41:54.608Z,0.20
2017-04-19T03:42:53.591Z,0.20
2017-04-19T03:43:52.558Z,0.20
2017-04-19T03:44:51.516Z,0.20
2017-04-19T03:45:51.320Z,0.20
2017-04-19T03:46:50.279Z,0.10
2017-04-19T03:47:49.287Z,0.10
2017-04-19T03:48:49.005Z,0.10
2017-04-19T03:49:48.021Z,0.20
2017-04-19T03:50:46.975Z,0.20
2017-04-19T03:51:45.956Z,0.20
2017-04-19T03:52:44.951Z,0.10
2017-04-19T03:53:43.957Z,0.10
2017-04-19T03:54:43.007Z,0.20
2017-04-19T03:55:41.997Z,0.20
2017-04-19T03:56:40.939Z,0.10
2017-04-19T03:57:40.659Z,0.10
2017-04-19T03:58:39.663Z,0.20
2017-04-19T03:59:38.640Z,0.20
2017-04-19T04:00:37.665Z,0.20
2017-04-19T04:01:36.627Z,0.20
2017-04-19T04:02:35.601Z,0.20
2017-04-19T04:03:34.560Z,0.20
2017-04-19T04:04:33.554Z,0.20
2017-04-19T04:05:32.555Z,0.30
2017-04-19T04:06:31.565Z,0.30
2017-04-19T04:07:30.524Z,0.30
2017-04-19T04:08:29.482Z,0.30
2017-04-19T04:09:28.428Z,0.30
2017-04-19T04:10:27.415Z,0.30
2017-04-19T04:11:26.387Z,0.40
2017-04-19T04:12:25.372Z,0.40
2017-04-19T04:13:24.404Z,0.40
2017-04-19T04:14:23.392Z,0.40
2017-04-19T04:15:22.404Z,0.30
2017-04-19T04:16:21.520Z,0.30
2017-04-19T04:17:20.511Z,0.30
2017-04-19T04:18:20.241Z,0.20
2017-04-19T04:19:19.225Z,0.20
2017-04-19T04:20:18.215Z,0.20
2017-04-19T04:21:17.159Z,0.20
2017-04-19T04:22:16.841Z,0.20
2017-04-19T04:23:15.824Z,0.30
2017-04-19T04:24:15.129Z,0.20
2017-04-19T04:25:14.861Z,0.20
2017-04-19T04:26:13.840Z,0.20
2017-04-19T04:27:12.804Z,0.20
2017-04-19T04:28:11.815Z,0.30
2017-04-19T04:29:10.847Z,0.30
2017-04-19T04:30:09.820Z,0.40
2017-04-19T04:31:08.832Z,0.40
2017-04-19T04:32:08.821Z,0.30
2017-04-19T04:33:07.805Z,0.40
2017-04-19T04:34:06.815Z,0.40
2017-04-19T04:35:05.823Z,0.40
2017-04-19T04:36:04.778Z,0.40
2017-04-19T04:37:04.484Z,0.50
2017-04-19T04:38:04.175Z,0.50
2017-04-19T04:39:03.216Z,0.50
2017-04-19T04:40:02.191Z,0.50
2017-04-19T04:41:01.204Z,0.40
2017-04-19T04:42:00.160Z,0.40
2017-04-19T04:42:59.161Z,0.40
2017-04-19T04:43:58.157Z,0.40
2017-04-19T04:44:57.136Z,0.30
2017-04-19T04:45:56.115Z,0.30
2017-04-19T04:46:55.116Z,0.30
2017-04-19T04:47:54.074Z,0.30
2017-04-19T04:48:53.041Z,0.30
2017-04-19T04:49:52.012Z,0.40
2017-04-19T04:50:51.012Z,0.40
2017-04-19T04:51:49.967Z,0.30
2017-04-19T04:52:48.962Z,0.30
2017-04-19T04:53:47.937Z,0.40
2017-04-19T04:54:46.884Z,0.50
2017-04-19T04:55:46.588Z,0.40
2017-04-19T04:56:46.282Z,0.40
2017-04-19T04:57:45.992Z,0.40
2017-04-19T04:58:45.000Z,0.50
2017-04-19T04:59:43.968Z,0.50
2017-04-19T05:00:42.948Z,0.50
2017-04-19T05:01:41.903Z,0.60
2017-04-19T05:02:41.617Z,0.60
2017-04-19T05:03:41.313Z,0.70
2017-04-19T05:04:41.045Z,0.70
2017-04-19T05:05:40.058Z,0.70
2017-04-19T05:06:39.032Z,0.80
2017-04-19T05:07:38.016Z,0.80
2017-04-19T05:08:36.987Z,0.80
2017-04-19T05:09:35.968Z,0.80
2017-04-19T05:10:34.996Z,0.80
2017-04-19T05:11:33.980Z,0.80
2017-04-19T05:12:33.896Z,0.80
2017-04-19T05:13:33.616Z,0.80
2017-04-19T05:14:32.579Z,0.90
2017-04-19T05:15:32.442Z,0.90
2017-04-19T05:16:31.447Z,0.90
2017-04-19T05:17:30.420Z,1.00
2017-04-19T05:18:29.387Z,1.10
2017-04-19T05:19:28.356Z,1.20
2017-04-19T05:20:27.373Z,1.50
2017-04-19T05:21:26.398Z,1.50
2017-04-19T05:22:25.476Z,1.40
2017-04-19T05:23:24.464Z,1.40
2017-04-19T05:24:23.432Z,1.30
2017-04-19T05:25:22.408Z,1.40
2017-04-19T05:26:21.388Z,1.80
2017-04-19T05:27:20.388Z,2.40
2017-04-19T05:28:20.258Z,2.70
2017-04-19T05:29:19.567Z,2.80
2017-04-19T05:30:18.623Z,2.70
2017-04-19T05:31:17.591Z,2.90
2017-04-19T05:32:16.558Z,2.90
2017-04-19T05:33:15.760Z,2.80
2017-04-19T05:34:14.824Z,2.80
2017-04-19T05:35:13.839Z,3.00
2017-04-19T05:36:12.819Z,2.80
2017-04-19T05:37:11.805Z,3.00
2017-04-19T05:38:10.779Z,3.10
2017-04-19T05:39:09.772Z,3.20
2017-04-19T05:40:08.784Z,3.40
2017-04-19T05:41:07.777Z,3.20
2017-04-19T05:42:06.739Z,3.20
2017-04-19T05:43:05.753Z,3.10
2017-04-19T05:44:04.699Z,3.20
2017-04-19T05:45:03.728Z,3.20
2017-04-19T05:46:03.493Z,3.20
2017-04-19T05:47:02.459Z,3.40
2017-04-19T05:48:01.428Z,3.50
2017-04-19T05:49:00.415Z,3.70
2017-04-19T05:49:59.394Z,3.50
2017-04-19T05:50:58.374Z,3.20
2017-04-19T05:51:57.376Z,2.90
2017-04-19T05:52:56.395Z,2.90
2017-04-19T05:53:55.563Z,3.00
2017-04-19T05:54:54.519Z,3.30
2017-04-19T05:55:53.849Z,3.60
2017-04-19T05:56:52.816Z,3.40
2017-04-19T05:57:51.818Z,3.40
2017-04-19T05:58:50.816Z,3.30
2017-04-19T05:59:49.791Z,3.40
2017-04-19T06:00:49.523Z,3.40
2017-04-19T06:01:48.505Z,3.60
2017-04-19T06:02:47.469Z,3.50
2017-04-19T06:03:46.480Z,3.60
2017-04-19T06:04:45.461Z,3.80
2017-04-19T06:05:44.457Z,3.70
2017-04-19T06:06:43.435Z,3.80
2017-04-19T06:07:42.410Z,3.80
2017-04-19T06:08:41.374Z,3.80
2017-04-19T06:09:40.348Z,3.70
2017-04-19T06:10:40.091Z,3.60
2017-04-19T06:11:39.052Z,3.70
2017-04-19T06:12:38.021Z,3.50
2017-04-19T06:13:37.050Z,3.50
2017-04-19T06:14:36.017Z,3.40
2017-04-19T06:15:35.003Z,3.60
2017-04-19T06:16:34.007Z,3.70
2017-04-19T06:17:33.056Z,3.70
2017-04-19T06:18:32.032Z,3.50
2017-04-19T06:19:31.015Z,3.60
2017-04-19T06:20:29.996Z,3.50
2017-04-19T06:21:28.974Z,3.40
2017-04-19T06:22:27.938Z,3.30
2017-04-19T06:23:27.644Z,3.20
2017-04-19T06:24:27.352Z,3.10
2017-04-19T06:25:26.343Z,3.10
2017-04-19T06:26:25.323Z,3.10
2017-04-19T06:27:24.337Z,3.00
2017-04-19T06:28:23.321Z,3.00
2017-04-19T06:29:22.290Z,3.00
2017-04-19T06:30:21.572Z,3.00
2017-04-19T06:31:20.868Z,3.00
2017-04-19T06:32:19.836Z,3.00
2017-04-19T06:33:18.875Z,3.00
2017-04-19T06:34:17.884Z,2.90
2017-04-19T06:35:16.861Z,2.90
2017-04-19T06:36:15.818Z,2.90
2017-04-19T06:37:14.789Z,2.90
2017-04-19T06:38:13.748Z,3.00
2017-04-19T06:39:12.808Z,3.10
2017-04-19T06:40:12.530Z,3.10
2017-04-19T06:41:11.517Z,3.20
2017-04-19T06:42:10.487Z,3.30
2017-04-19T06:43:09.504Z,3.40
2017-04-19T06:44:08.463Z,3.40
2017-04-19T06:45:07.434Z,3.40
2017-04-19T06:46:06.384Z,3.40
2017-04-19T06:47:05.332Z,3.40
2017-04-19T06:48:04.285Z,3.40
2017-04-19T06:49:03.236Z,3.40
2017-04-19T06:50:02.966Z,3.40
2017-04-19T06:51:01.985Z,3.40
2017-04-19T06:52:00.947Z,3.40
2017-04-19T06:52:59.899Z,3.50
2017-04-19T06:53:59.601Z,3.60
2017-04-19T06:54:59.295Z,3.60
2017-04-19T06:55:59.006Z,3.60
2017-04-19T06:56:58.019Z,3.70
2017-04-19T06:57:56.989Z,3.60
2017-04-19T06:58:56.129Z,3.60
2017-04-19T06:59:55.067Z,3.60
2017-04-19T07:00:54.025Z,3.50
2017-04-19T07:01:52.984Z,3.40
2017-04-19T07:02:56.915Z,3.40
2017-04-19T07:03:55.872Z,3.40
2017-04-19T07:04:54.837Z,3.50
2017-04-19T07:05:53.796Z,3.50
2017-04-19T07:06:52.748Z,3.60
2017-04-19T07:07:51.699Z,3.70
2017-04-19T07:08:50.723Z,3.70
2017-04-19T07:09:49.737Z,3.70
2017-04-19T07:10:48.951Z,3.70
2017-04-19T07:11:47.904Z,3.70
2017-04-19T07:12:46.856Z,3.70
2017-04-19T07:13:46.551Z,3.70
2017-04-19T07:14:45.507Z,3.80
2017-04-19T07:15:44.471Z,3.90
2017-04-19T07:16:43.459Z,3.90
2017-04-19T07:17:42.412Z,3.90
2017-04-19T07:18:41.389Z,4.00
2017-04-19T07:19:40.380Z,4.10
2017-04-19T07:20:39.359Z,4.20
2017-04-19T07:21:38.341Z,4.30
2017-04-19T07:22:37.331Z,4.40
2017-04-19T07:23:36.300Z,4.50
2017-04-19T07:24:35.260Z,4.50
2017-04-19T07:25:34.292Z,4.60
2017-04-19T07:26:33.274Z,4.50
2017-04-19T07:27:32.246Z,4.60
2017-04-19T07:28:31.249Z,4.70
2017-04-19T07:29:30.207Z,4.90
2017-04-19T07:30:30.495Z,4.70
2017-04-19T07:31:29.523Z,4.70
2017-04-19T07:32:28.514Z,4.80
2017-04-19T07:33:27.472Z,4.60
2017-04-19T07:34:26.449Z,4.70
2017-04-19T07:35:25.416Z,4.80
2017-04-19T07:36:24.389Z,4.90
2017-04-19T07:37:23.385Z,5.10
2017-04-19T07:38:22.388Z,5.20
2017-04-19T07:39:21.349Z,5.00
2017-04-19T07:40:20.315Z,4.80
2017-04-19T07:41:19.313Z,4.50
2017-04-19T07:42:18.295Z,4.60
2017-04-19T07:43:17.292Z,4.60
2017-04-19T07:44:16.259Z,4.60
2017-04-19T07:45:15.237Z,4.80
2017-04-19T07:46:14.212Z,4.90
2017-04-19T07:47:13.778Z,4.90
2017-04-19T07:48:12.744Z,4.90
2017-04-19T07:49:11.700Z,4.90
2017-04-19T07:50:10.687Z,5.10
2017-04-19T07:51:09.639Z,5.30
2017-04-19T07:52:08.615Z,5.40
2017-04-19T07:53:08.365Z,5.60
2017-04-19T07:54:07.348Z,5.70
2017-04-19T07:55:06.334Z,5.80
2017-04-19T07:56:05.344Z,5.90
2017-04-19T07:57:04.295Z,6.00
2017-04-19T07:58:03.320Z,6.20
2017-04-19T07:59:02.273Z,6.30
2017-04-19T08:00:01.237Z,6.30
2017-04-19T08:01:00.249Z,6.40
2017-04-19T08:01:59.234Z,6.40
2017-04-19T08:02:58.223Z,6.30
2017-04-19T08:03:57.185Z,6.40
2017-04-19T08:04:56.139Z,6.50
2017-04-19T08:05:55.129Z,6.50
2017-04-19T08:06:54.089Z,6.20
2017-04-19T08:07:53.072Z,6.00
2017-04-19T08:08:52.027Z,6.00
2017-04-19T08:09:51.008Z,5.80
2017-04-19T08:10:50.741Z,5.70
2017-04-19T08:11:49.702Z,5.40
2017-04-19T08:12:49.410Z,5.50
2017-04-19T08:13:48.382Z,5.60
2017-04-19T08:14:48.072Z,5.60
2017-04-19T08:15:47.038Z,5.70
2017-04-19T08:16:45.996Z,5.60
2017-04-19T08:17:44.951Z,5.60
2017-04-19T08:18:43.931Z,5.70
2017-04-19T08:19:42.904Z,5.80
2017-04-19T08:20:41.870Z,5.80
2017-04-19T08:21:40.829Z,6.00
2017-04-19T08:22:39.803Z,6.10
2017-04-19T08:23:38.772Z,6.30
2017-04-19T08:24:37.732Z,6.50
2017-04-19T08:25:36.744Z,6.60
2017-04-19T08:27:08.476Z,6.50
2017-04-19T08:28:07.432Z,6.60
2017-04-19T08:29:07.144Z,6.30
2017-04-19T08:30:06.100Z,6.30
2017-04-19T08:31:05.108Z,6.30
2017-04-19T08:32:04.092Z,6.50
2017-04-19T08:33:03.073Z,6.50
2017-04-19T08:34:02.026Z,6.70
2017-04-19T08:35:00.995Z,6.80
2017-04-19T08:35:59.952Z,6.60
2017-04-19T08:36:58.936Z,6.50
2017-04-19T08:37:57.906Z,6.60
2017-04-19T08:38:56.847Z,6.80
2017-04-19T08:39:55.822Z,6.50
2017-04-19T08:40:55.541Z,6.30
2017-04-19T08:41:55.260Z,6.10
2017-04-19T08:42:54.269Z,6.20
2017-04-19T08:43:53.227Z,6.20
2017-04-19T08:44:52.179Z,6.00
2017-04-19T08:45:51.217Z,6.10
2017-04-19T08:46:50.223Z,6.20
2017-04-19T08:47:49.187Z,6.40
2017-04-19T08:48:48.186Z,6.30
2017-04-19T08:49:47.143Z,6.20
2017-04-19T08:50:46.872Z,6.20
2017-04-19T08:51:45.904Z,6.30
2017-04-19T08:52:44.869Z,6.30
2017-04-19T08:53:44.635Z,6.30
2017-04-19T08:54:43.667Z,6.40
2017-04-19T08:55:42.642Z,6.60
2017-04-19T08:56:41.632Z,6.50
2017-04-19T08:57:40.618Z,6.70
2017-04-19T08:58:39.579Z,6.90
2017-04-19T08:59:38.552Z,7.00
2017-04-19T09:00:37.540Z,7.20
2017-04-19T09:01:36.521Z,7.10
2017-04-19T09:02:35.496Z,7.30
2017-04-19T09:03:34.639Z,7.20
2017-04-19T09:04:34.344Z,7.10
2017-04-19T09:05:33.303Z,7.30
2017-04-19T09:06:32.290Z,7.30
2017-04-19T09:07:31.243Z,7.40
2017-04-19T09:08:30.216Z,7.20
2017-04-19T09:09:29.204Z,7.10
2017-04-19T09:10:28.173Z,6.90
2017-04-19T09:11:27.165Z,7.00
2017-04-19T09:12:26.220Z,6.80
2017-04-19T09:13:25.167Z,6.50
2017-04-19T09:14:24.156Z,6.30
2017-04-19T09:15:23.124Z,6.40
2017-04-19T09:16:22.071Z,6.20
2017-04-19T09:17:21.064Z,6.20
2017-04-19T09:18:20.048Z,6.30
2017-04-19T09:19:18.991Z,6.10
2017-04-19T09:20:18.691Z,6.10
2017-04-19T09:21:18.416Z,6.10
2017-04-19T09:22:17.415Z,6.10
2017-04-19T09:23:16.383Z,6.00
2017-04-19T09:24:15.379Z,6.00
2017-04-19T09:25:14.351Z,6.00
2017-04-19T09:26:13.321Z,5.90
2017-04-19T09:27:12.296Z,5.80
2017-04-19T09:28:11.251Z,6.00
2017-04-19T09:29:10.220Z,6.20
2017-04-19T09:30:09.216Z,6.20
2017-04-19T09:31:08.193Z,6.40
2017-04-19T09:32:07.167Z,6.70
2017-04-19T09:33:06.147Z,6.90
2017-04-19T09:34:05.105Z,7.10
2017-04-19T09:35:04.061Z,7.30
2017-04-19T09:36:03.071Z,7.40
2017-04-19T09:37:02.124Z,7.60
2017-04-19T09:38:01.134Z,7.70
2017-04-19T09:39:00.145Z,7.80
2017-04-19T09:39:59.108Z,7.90
2017-04-19T09:40:58.093Z,8.20
2017-04-19T09:41:57.079Z,8.00
2017-04-19T09:42:56.305Z,7.80
2017-04-19T09:43:55.247Z,7.70
2017-04-19T09:44:54.197Z,7.30
2017-04-19T09:45:53.151Z,7.20
2017-04-19T09:46:52.096Z,6.90
2017-04-19T09:47:51.079Z,7.00
2017-04-19T09:48:50.133Z,6.90
2017-04-19T09:49:49.108Z,6.90
2017-04-19T09:50:48.086Z,6.70
2017-04-19T09:51:47.052Z,6.40
2017-04-19T09:52:46.762Z,6.20
2017-04-19T09:53:45.811Z,6.30
2017-04-19T09:54:44.820Z,6.30
2017-04-19T09:55:44.529Z,6.30
2017-04-19T09:56:43.500Z,6.30
2017-04-19T09:57:43.199Z,6.20
2017-04-19T09:58:42.156Z,6.40
2017-04-19T09:59:41.150Z,6.60
2017-04-19T10:00:40.096Z,6.90
2017-04-19T10:01:39.061Z,6.80
2017-04-19T10:02:38.023Z,6.70
2017-04-19T10:03:37.025Z,6.90
2017-04-19T10:04:36.031Z,7.00
2017-04-19T10:05:35.007Z,7.10
2017-04-19T10:06:33.974Z,6.90
2017-04-19T10:07:32.941Z,6.80
2017-04-19T10:08:31.905Z,6.70
2017-04-19T10:09:31.617Z,6.60
2017-04-19T10:10:30.630Z,6.30
2017-04-19T10:11:29.637Z,6.30
2017-04-19T10:12:28.623Z,6.20
2017-04-19T10:13:27.595Z,6.00
2017-04-19T10:14:26.560Z,6.10
2017-04-19T10:15:25.524Z,6.10
2017-04-19T10:16:24.483Z,5.90
2017-04-19T10:17:23.498Z,6.00
2017-04-19T10:18:22.459Z,6.20
2017-04-19T10:19:22.228Z,6.10
2017-04-19T10:20:21.283Z,6.20
2017-04-19T10:21:20.447Z,6.30
2017-04-19T10:22:19.412Z,6.40
2017-04-19T10:23:18.470Z,6.30
2017-04-19T10:24:17.450Z,6.30
2017-04-19T10:25:16.415Z,6.50
2017-04-19T10:26:15.381Z,6.60
2017-04-19T10:27:14.345Z,6.40
2017-04-19T10:28:13.327Z,6.30
2017-04-19T10:29:12.309Z,6.20
2017-04-19T10:30:11.268Z,6.30
2017-04-19T10:31:10.957Z,6.40
2017-04-19T10:32:09.926Z,6.40
2017-04-19T10:33:08.878Z,6.50
2017-04-19T10:34:07.887Z,6.40
2017-04-19T10:35:06.858Z,6.60
2017-04-19T10:36:05.846Z,6.70
2017-04-19T10:37:04.830Z,6.70
2017-04-19T10:38:03.822Z,6.50
2017-04-19T10:39:02.798Z,6.40
2017-04-19T10:40:01.768Z,6.60
2017-04-19T10:41:00.776Z,6.40
2017-04-19T10:42:59.116Z,6.40
2017-04-19T10:43:58.083Z,6.00
2017-04-19T10:44:57.040Z,6.10
2017-04-19T10:45:56.743Z,5.80
2017-04-19T10:46:56.540Z,5.50
2017-04-19T10:47:55.494Z,5.40
2017-04-19T10:48:54.452Z,5.50
2017-04-19T10:49:53.414Z,5.40
2017-04-19T10:50:52.383Z,5.40
2017-04-19T10:51:52.096Z,5.50
2017-04-19T10:52:51.108Z,5.70
2017-04-19T10:53:50.078Z,5.80
2017-04-19T10:54:49.043Z,5.80
2017-04-19T10:55:48.026Z,6.00
2017-04-19T10:56:47.044Z,6.10
2017-04-19T10:57:46.007Z,5.90
2017-04-19T10:58:45.000Z,6.00
2017-04-19T10:59:43.973Z,6.10
2017-04-19T11:00:42.921Z,6.10
2017-04-19T11:01:42.608Z,6.20
2017-04-19T11:02:41.673Z,6.30
2017-04-19T11:03:40.655Z,6.30
2017-04-19T11:04:39.656Z,6.20
2017-04-19T11:05:38.623Z,6.30
2017-04-19T11:06:37.604Z,6.50
2017-04-19T11:07:36.588Z,6.70
2017-04-19T11:08:35.548Z,6.80
2017-04-19T11:09:34.516Z,6.70
2017-04-19T11:10:33.566Z,6.20
2017-04-19T11:11:33.287Z,6.40
2017-04-19T11:12:32.272Z,6.40
2017-04-19T11:13:31.255Z,6.30
2017-04-19T11:14:30.232Z,6.20
2017-04-19T11:15:29.195Z,6.20
2017-04-19T11:16:28.168Z,6.10
2017-04-19T11:17:27.114Z,5.90
2017-04-19T11:18:26.081Z,5.90
2017-04-19T11:19:25.053Z,5.90
2017-04-19T11:20:24.030Z,6.00
2017-04-19T11:21:23.039Z,5.80
2017-04-19T11:22:22.019Z,5.80
2017-04-19T11:23:21.011Z,5.70
2017-04-19T11:24:19.967Z,5.80
2017-04-19T11:25:18.937Z,5.70
2017-04-19T11:26:18.704Z,5.70
2017-04-19T11:27:17.686Z,5.60
2017-04-19T11:28:16.690Z,5.90
2017-04-19T11:29:15.652Z,5.70
2017-04-19T11:30:14.649Z,5.90
2017-04-19T11:31:13.600Z,6.20
2017-04-19T11:32:12.572Z,6.10
2017-04-19T11:33:11.532Z,6.30
2017-04-19T11:34:10.820Z,6.60
2017-04-19T11:35:09.867Z,6.60
2017-04-19T11:36:08.837Z,6.60
2017-04-19T11:37:07.821Z,6.80
2017-04-19T11:38:06.775Z,6.70
2017-04-19T11:39:06.079Z,7.00
2017-04-19T11:40:05.067Z,7.30
2017-04-19T11:41:04.031Z,7.30
2017-04-19T11:42:02.984Z,7.20
2017-04-19T11:43:02.042Z,7.00
2017-04-19T11:44:01.016Z,7.00
2017-04-19T11:44:59.980Z,6.90
2017-04-19T11:45:58.981Z,6.90
2017-04-19T11:46:57.939Z,7.10
2017-04-19T11:47:56.900Z,7.30
2017-04-19T11:48:55.881Z,7.40
2017-04-19T11:49:54.848Z,7.20
2017-04-19T11:50:53.804Z,7.30
2017-04-19T11:51:52.782Z,7.00
2017-04-19T11:52:51.729Z,7.10
2017-04-19T11:53:50.687Z,7.20
2017-04-19T11:54:49.666Z,7.20
2017-04-19T11:55:48.615Z,7.20
2017-04-19T11:56:47.672Z,7.20
2017-04-19T11:57:46.689Z,7.10
2017-04-19T11:58:45.640Z,7.10
2017-04-19T11:59:44.595Z,7.10
2017-04-19T12:00:43.581Z,7.20
2017-04-19T12:01:42.589Z,7.40
2017-04-19T12:02:41.559Z,7.30
2017-04-19T12:03:40.566Z,7.30
2017-04-19T12:04:39.532Z,7.40
2017-04-19T12:05:38.500Z,7.40
2017-04-19T12:06:37.456Z,7.60
2017-04-19T12:07:36.422Z,7.50
2017-04-19T12:08:35.386Z,7.60
2017-04-19T12:09:34.431Z,7.70
2017-04-19T12:10:33.615Z,7.90
2017-04-19T12:11:32.554Z,7.80
2017-04-19T12:12:31.881Z,7.70
2017-04-19T12:13:30.864Z,7.60
2017-04-19T12:14:29.831Z,7.60
2017-04-19T12:15:28.790Z,7.80
2017-04-19T12:16:27.778Z,7.90
2017-04-19T12:17:26.752Z,7.90
2017-04-19T12:18:25.719Z,8.00
2017-04-19T12:19:24.737Z,8.10
2017-04-19T12:20:24.614Z,8.20
2017-04-19T12:21:23.570Z,8.20
2017-04-19T12:22:22.541Z,8.00
2017-04-19T12:23:21.486Z,8.20
2017-04-19T12:24:21.199Z,8.40
2017-04-19T12:25:20.172Z,8.80
2017-04-19T12:26:19.868Z,9.00
2017-04-19T12:27:19.638Z,9.10
2017-04-19T12:28:18.607Z,8.50
2017-04-19T12:29:17.743Z,8.20
2017-04-19T12:30:17.456Z,7.90
2017-04-19T12:31:16.440Z,8.00
2017-04-19T12:32:15.408Z,8.00
2017-04-19T12:33:14.378Z,8.10
2017-04-19T12:34:13.355Z,8.00
2017-04-19T12:35:12.312Z,7.70
2017-04-19T12:36:11.263Z,7.60
2017-04-19T12:37:10.218Z,7.70
2017-04-19T12:38:09.198Z,7.80
2017-04-19T12:39:08.187Z,8.00
2017-04-19T12:40:07.150Z,7.80
2017-04-19T12:41:06.892Z,7.70
2017-04-19T12:42:05.855Z,7.60
2017-04-19T12:43:05.133Z,7.50
2017-04-19T12:44:04.107Z,7.50
2017-04-19T12:45:03.094Z,7.40
2017-04-19T12:46:02.099Z,7.30
2017-04-19T12:47:01.038Z,7.00
2017-04-19T12:48:00.007Z,7.10
2017-04-19T12:48:58.966Z,7.10
2017-04-19T12:49:57.940Z,7.00
2017-04-19T12:50:56.929Z,7.00
2017-04-19T12:51:56.199Z,7.00
2017-04-19T12:52:55.197Z,7.00
2017-04-19T12:53:54.138Z,6.90
2017-04-19T12:54:53.101Z,7.00
2017-04-19T12:55:52.076Z,6.80
2017-04-19T12:56:51.101Z,6.60
2017-04-19T12:57:50.831Z,6.60
2017-04-19T12:58:49.805Z,6.30
2017-04-19T12:59:48.854Z,6.30
2017-04-19T13:00:47.826Z,6.30
2017-04-19T13:01:46.809Z,6.30
2017-04-19T13:02:45.816Z,6.30
2017-04-19T13:03:45.521Z,6.40
2017-04-19T13:04:44.548Z,6.20
2017-04-19T13:05:43.513Z,6.40
2017-04-19T13:06:42.515Z,6.60
2017-04-19T13:07:41.520Z,6.80
2017-04-19T13:08:40.500Z,7.00